Time;durP1;ratioP1;P1;durP2;ratioP2;P2;SDS_P1;SDS_P2;PMS_P1;PMS_P2;Temp;Humidity;BMP_temperature;BMP_pressure;BME280_temperature;BME280_humidity;BME280_pressure;Samples;Min_cycle;Max_cycle;Signal;HPM_P1;HPM_P2
2022/11/02 00:01:29;;;;;;;16.42;11.55;;;12.30;49.30;;;;;;5031956;28;20170;-42
2022/11/02 00:03:55;;;;;;;19.83;11.20;;;12.30;49.40;;;;;;5031852;28;20174;-42
2022/11/02 00:06:21;;;;;;;15.70;10.47;;;12.30;49.30;;;;;;5031240;28;20212;-42
2022/11/02 00:08:46;;;;;;;17.97;10.67;;;12.30;49.20;;;;;;5031428;28;20704;-42
2022/11/02 00:11:12;;;;;;;17.80;10.60;;;12.30;49.60;;;;;;5032149;28;20174;-42
2022/11/02 00:13:38;;;;;;;17.60;11.50;;;12.30;49.50;;;;;;5031808;28;20656;-42
2022/11/02 00:16:07;;;;;;;19.90;13.07;;;12.40;49.70;;;;;;5031164;28;20240;-42
2022/11/02 00:18:34;;;;;;;20.15;12.23;;;12.40;49.70;;;;;;5031719;28;20201;-41
2022/11/02 00:21:01;;;;;;;22.95;12.68;;;12.40;50.00;;;;;;5031858;28;20273;-42
2022/11/02 00:23:27;;;;;;;19.73;12.80;;;12.50;50.40;;;;;;5031666;28;20175;-42
2022/11/02 00:25:55;;;;;;;21.17;12.13;;;12.50;50.40;;;;;;5031321;28;20251;-42
2022/11/02 00:28:20;;;;;;;23.50;14.70;;;12.60;49.90;;;;;;5031590;28;20228;-42
2022/11/02 00:30:46;;;;;;;23.13;12.67;;;12.50;50.00;;;;;;5031673;28;20170;-42
2022/11/02 00:33:12;;;;;;;22.20;13.87;;;12.50;49.70;;;;;;5031608;28;20642;-42
2022/11/02 00:35:38;;;;;;;17.02;11.55;;;12.50;50.00;;;;;;5030964;28;20665;-47
2022/11/02 00:38:04;;;;;;;18.42;11.38;;;12.50;49.80;;;;;;5031448;28;20808;-42
2022/11/02 00:40:30;;;;;;;23.83;12.70;;;12.50;50.00;;;;;;5031617;28;20183;-42
2022/11/02 00:42:56;;;;;;;19.92;12.32;;;12.50;49.90;;;;;;5031541;28;20913;-41
2022/11/02 00:45:22;;;;;;;25.43;15.47;;;12.50;50.20;;;;;;5031288;28;20209;-42
2022/11/02 00:47:48;;;;;;;36.33;16.37;;;12.50;50.70;;;;;;5030903;28;20194;-42
2022/11/02 00:50:14;;;;;;;25.30;14.55;;;12.60;51.10;;;;;;5031476;28;20905;-42
2022/11/02 00:52:41;;;;;;;23.67;12.40;;;12.60;51.00;;;;;;5034072;28;20186;-42
2022/11/02 00:55:08;;;;;;;26.75;14.30;;;12.60;51.20;;;;;;5034888;28;20458;-41
2022/11/02 00:57:34;;;;;;;27.20;15.70;;;12.60;51.10;;;;;;5034367;28;20181;-42
2022/11/02 01:00:00;;;;;;;25.42;14.07;;;12.60;51.70;;;;;;5035017;28;20177;-42
2022/11/02 01:02:26;;;;;;;26.37;15.77;;;12.60;51.70;;;;;;5034905;28;20208;-42
2022/11/02 01:04:51;;;;;;;20.50;13.07;;;12.60;51.50;;;;;;5034780;28;20208;-42
2022/11/02 01:07:17;;;;;;;23.47;15.57;;;12.60;51.10;;;;;;5034101;28;20209;-42
2022/11/02 01:09:43;;;;;;;25.17;15.30;;;12.60;52.30;;;;;;5034746;28;20170;-42
2022/11/02 01:12:09;;;;;;;21.97;14.87;;;12.60;52.00;;;;;;5034732;28;20408;-42
2022/11/02 01:14:35;;;;;;;18.93;12.90;;;12.50;51.90;;;;;;5034665;28;20170;-42
2022/11/02 01:17:00;;;;;;;26.67;15.43;;;12.50;51.40;;;;;;5033949;28;20669;-42
2022/11/02 01:19:26;;;;;;;26.30;15.70;;;12.50;51.60;;;;;;5034561;28;20405;-41
2022/11/02 01:21:52;;;;;;;23.92;14.13;;;12.50;51.10;;;;;;5034576;28;20185;-42
2022/11/02 01:24:18;;;;;;;24.60;14.80;;;12.40;51.80;;;;;;5034646;28;20182;-42
2022/11/02 01:26:44;;;;;;;23.67;14.75;;;12.40;51.20;;;;;;5033707;28;20202;-42
2022/11/02 01:29:11;;;;;;;20.05;12.45;;;12.50;51.40;;;;;;5034418;28;20174;-41
2022/11/02 01:31:36;;;;;;;25.10;14.20;;;12.50;51.30;;;;;;5034324;28;20654;-41
2022/11/02 01:34:02;;;;;;;33.13;15.83;;;12.50;51.10;;;;;;5034383;28;20178;-41
2022/11/02 01:36:28;;;;;;;22.30;13.30;;;12.40;50.90;;;;;;5033583;28;20265;-41
2022/11/02 01:38:54;;;;;;;23.73;14.27;;;12.40;50.90;;;;;;5034176;28;20174;-40
2022/11/02 01:41:21;;;;;;;22.55;13.13;;;12.40;51.00;;;;;;5034112;28;20544;-41
2022/11/02 01:43:50;;;;;;;21.15;13.20;;;12.40;51.00;;;;;;5034074;28;20609;-40
2022/11/02 01:46:22;;;;;;;29.50;14.27;;;12.40;50.80;;;;;;5033457;28;20847;-41
2022/11/02 01:49:00;;;;;;;22.60;13.32;;;12.40;51.20;;;;;;5034422;28;20193;-41
2022/11/02 01:51:34;;;;;;;20.50;13.27;;;12.40;51.00;;;;;;5033914;28;20580;-40
2022/11/02 01:54:08;;;;;;;20.33;12.43;;;12.40;51.20;;;;;;5033925;28;20169;-41
2022/11/02 01:56:36;;;;;;;20.10;11.75;;;12.40;51.40;;;;;;5033305;28;20209;-40
2022/11/02 01:59:07;;;;;;;23.02;11.73;;;12.40;51.40;;;;;;5033826;28;20253;-41
2022/11/02 02:01:33;;;;;;;17.58;13.02;;;12.30;51.90;;;;;;5033844;28;20158;-41
2022/11/02 02:04:00;;;;;;;19.03;13.10;;;12.30;51.70;;;;;;5033260;28;20170;-41
2022/11/02 02:06:26;;;;;;;21.52;12.30;;;12.30;51.70;;;;;;5033017;28;20186;-40
2022/11/02 02:08:54;;;;;;;23.67;13.77;;;12.30;51.60;;;;;;5033685;28;20198;-42
2022/11/02 02:11:31;;;;;;;24.95;16.38;;;12.30;52.10;;;;;;5033560;28;20413;-43
2022/11/02 02:14:01;;;;;;;22.95;12.95;;;12.20;51.60;;;;;;5033854;28;20162;-41
2022/11/02 02:16:33;;;;;;;23.17;12.68;;;12.30;51.90;;;;;;5032754;28;20190;-41
2022/11/02 02:19:08;;;;;;;22.27;14.57;;;12.30;51.70;;;;;;5033457;28;20159;-41
2022/11/02 02:21:59;;;;;;;26.75;13.75;;;12.20;51.70;;;;;;5033409;28;20165;-41
2022/11/02 02:24:45;;;;;;;18.30;11.70;;;12.20;51.60;;;;;;5033351;28;20201;-41
2022/11/02 02:27:39;;;;;;;26.75;13.30;;;12.20;51.70;;;;;;5032527;28;20236;-40
2022/11/02 02:30:08;;;;;;;17.45;11.32;;;12.10;51.90;;;;;;4995226;28;20200;-41
2022/11/02 02:32:55;;;;;;;20.30;10.52;;;12.10;51.70;;;;;;5033099;28;20551;-41
2022/11/02 02:35:30;;;;;;;18.27;11.75;;;12.20;51.70;;;;;;5032863;28;20270;-41
2022/11/02 02:38:02;;;;;;;24.92;13.90;;;12.20;51.90;;;;;;5032819;28;20562;-39
2022/11/02 02:40:35;;;;;;;26.38;15.55;;;12.20;51.90;;;;;;5033014;28;20170;-41
2022/11/02 02:43:12;;;;;;;23.58;13.98;;;12.20;51.90;;;;;;5032976;28;20592;-41
2022/11/02 02:45:53;;;;;;;20.30;12.23;;;12.10;51.50;;;;;;5032289;28;20208;-41
2022/11/02 02:48:21;;;;;;;21.02;11.50;;;12.10;51.10;;;;;;5032831;28;20800;-41
2022/11/02 02:50:56;;;;;;;19.73;11.38;;;12.00;51.00;;;;;;5032820;28;20184;-39
2022/11/02 02:53:29;;;;;;;24.13;14.27;;;12.00;50.90;;;;;;5033143;28;20205;-40
2022/11/02 02:55:58;;;;;;;18.23;12.60;;;11.90;50.90;;;;;;5032961;28;20194;-41
2022/11/02 02:58:31;;;;;;;18.10;10.88;;;11.80;51.00;;;;;;5033241;28;20634;-39
2022/11/02 03:00:59;;;;;;;19.95;11.75;;;11.90;50.90;;;;;;5033182;28;20174;-41
2022/11/02 03:03:27;;;;;;;23.17;12.55;;;11.80;50.80;;;;;;5032678;28;20194;-39
2022/11/02 03:06:21;;;;;;;22.02;11.77;;;11.80;50.80;;;;;;5031869;28;20194;-41
2022/11/02 03:09:04;;;;;;;18.20;11.70;;;11.80;50.50;;;;;;5032525;28;20660;-41
2022/11/02 03:11:32;;;;;;;21.23;11.75;;;11.70;50.60;;;;;;5032556;28;20581;-41
2022/11/02 03:14:07;;;;;;;21.52;12.68;;;11.70;50.80;;;;;;5031982;28;20282;-41
2022/11/02 03:16:48;;;;;;;21.30;13.07;;;11.70;50.90;;;;;;5032082;28;20193;-41
2022/11/02 03:19:26;;;;;;;25.67;12.63;;;11.70;51.10;;;;;;5032398;28;20228;-41
2022/11/02 03:22:01;;;;;;;24.10;12.20;;;11.80;51.10;;;;;;5032592;28;20264;-40
2022/11/02 03:24:46;;;;;;;20.45;12.55;;;11.70;51.30;;;;;;5032418;28;20712;-41
2022/11/02 03:27:32;;;;;;;32.67;14.02;;;11.70;51.30;;;;;;5031798;28;20220;-41
2022/11/02 03:30:10;;;;;;;22.70;11.80;;;11.80;51.40;;;;;;5032279;28;20188;-42
2022/11/02 03:32:47;;;;;;;30.65;14.30;;;11.80;51.40;;;;;;5032524;28;20181;-41
2022/11/02 03:35:28;;;;;;;24.02;13.10;;;11.80;51.40;;;;;;5032066;28;20189;-42
2022/11/02 03:38:16;;;;;;;22.25;14.15;;;11.90;51.50;;;;;;5031645;28;20170;-41
2022/11/02 03:40:46;;;;;;;27.70;12.57;;;11.90;51.70;;;;;;5032419;28;20565;-41
2022/11/02 03:43:13;;;;;;;19.35;13.48;;;11.90;52.10;;;;;;5032043;28;20166;-42
2022/11/02 03:45:43;;;;;;;24.02;12.48;;;11.80;51.90;;;;;;5031306;28;20209;-41
2022/11/02 03:48:11;;;;;;;24.38;15.38;;;11.80;51.80;;;;;;5031872;28;20565;-42
2022/11/02 03:50:42;;;;;;;25.48;13.93;;;11.90;51.70;;;;;;5032015;28;20169;-41
2022/11/02 03:53:40;;;;;;;25.52;13.07;;;11.90;51.80;;;;;;5032147;28;20179;-41
2022/11/02 03:56:11;;;;;;;25.55;13.80;;;11.90;51.70;;;;;;4998148;28;20224;-41
2022/11/02 03:58:37;;;;;;;24.00;13.80;;;11.90;51.70;;;;;;5032222;28;20236;-41
2022/11/02 04:01:07;;;;;;;19.30;13.37;;;11.90;51.50;;;;;;5031989;28;20641;-41
2022/11/02 04:03:35;;;;;;;24.70;14.55;;;11.90;51.50;;;;;;5032208;28;20186;-41
2022/11/02 04:06:01;;;;;;;21.05;14.25;;;11.90;51.50;;;;;;5031296;28;20190;-42
2022/11/02 04:08:34;;;;;;;26.13;15.40;;;11.90;51.50;;;;;;5031793;28;20593;-41
2022/11/02 04:16:29;;;;;;;42.65;20.70;;;11.90;51.60;;;;;;5031174;28;20628;-42
2022/11/02 04:21:39;;;;;;;35.72;21.05;;;11.80;51.80;;;;;;5031754;28;20455;-41
2022/11/02 04:26:49;;;;;;;34.63;18.65;;;11.80;51.90;;;;;;5034078;28;20942;-41
2022/11/02 04:29:15;;;;;;;34.93;18.40;;;11.80;51.90;;;;;;5035517;28;20178;-41
2022/11/02 04:31:40;;;;;;;28.83;15.07;;;11.80;51.80;;;;;;5035471;28;20220;-41
2022/11/02 04:34:06;;;;;;;33.13;17.97;;;11.80;51.70;;;;;;5035310;28;20170;-42
2022/11/02 04:36:32;;;;;;;33.93;19.27;;;11.80;51.70;;;;;;5034948;28;20190;-42
2022/11/02 04:38:58;;;;;;;27.20;18.90;;;11.80;51.70;;;;;;5035359;28;20185;-41
2022/11/02 04:41:42;;;;;;;31.57;15.70;;;11.80;51.50;;;;;;5035391;28;20548;-41
2022/11/02 04:44:10;;;;;;;25.13;14.50;;;11.80;51.60;;;;;;5035208;28;20810;-40
2022/11/02 04:46:37;;;;;;;26.23;14.07;;;11.70;52.10;;;;;;5016614;28;20225;-41
2022/11/02 04:49:03;;;;;;;33.38;14.55;;;11.70;52.00;;;;;;5035207;28;20611;-41
2022/11/02 04:51:30;;;;;;;29.03;15.10;;;11.70;52.10;;;;;;5035076;28;20174;-42
2022/11/02 04:53:56;;;;;;;29.30;14.50;;;11.70;52.00;;;;;;5035024;28;20392;-41
2022/11/02 04:56:23;;;;;;;30.73;15.23;;;11.70;52.10;;;;;;5034343;28;20240;-41
2022/11/02 04:58:54;;;;;;;26.88;13.75;;;11.70;52.10;;;;;;5034998;28;20169;-42
2022/11/02 05:01:21;;;;;;;26.05;14.02;;;11.70;52.00;;;;;;5034842;28;20205;-41
2022/11/02 05:03:48;;;;;;;26.13;14.52;;;11.70;51.90;;;;;;5035033;28;20182;-41
2022/11/02 05:06:15;;;;;;;22.48;12.43;;;11.70;51.90;;;;;;5034195;28;20232;-41
2022/11/02 05:08:40;;;;;;;20.65;11.90;;;11.70;51.90;;;;;;5034450;28;20272;-41
2022/11/02 05:11:07;;;;;;;26.30;12.57;;;11.70;51.90;;;;;;5034769;28;20198;-41
2022/11/02 05:13:33;;;;;;;22.48;12.57;;;11.70;52.10;;;;;;5034668;28;20522;-42
2022/11/02 05:15:59;;;;;;;24.53;13.13;;;11.60;52.00;;;;;;5033946;28;20186;-42
2022/11/02 05:18:26;;;;;;;33.60;13.20;;;11.60;51.90;;;;;;5034589;28;20170;-41
2022/11/02 05:20:55;;;;;;;22.20;14.05;;;11.60;51.80;;;;;;5034580;28;20704;-41
2022/11/02 05:23:22;;;;;;;25.08;12.07;;;11.60;51.80;;;;;;5034482;28;20276;-42
2022/11/02 05:26:02;;;;;;;26.80;14.57;;;11.60;51.80;;;;;;5033751;28;20565;-41
2022/11/02 05:28:29;;;;;;;21.75;11.98;;;11.60;51.70;;;;;;5034550;28;20206;-41
2022/11/02 05:30:58;;;;;;;21.45;12.32;;;11.60;51.60;;;;;;5034626;28;20550;-41
2022/11/02 05:33:24;;;;;;;22.45;12.80;;;11.60;51.60;;;;;;5034400;28;20178;-41
2022/11/02 05:35:49;;;;;;;21.93;11.17;;;11.60;51.50;;;;;;5033573;28;20631;-41
2022/11/02 05:38:15;;;;;;;21.50;11.20;;;11.50;51.50;;;;;;5033646;28;20984;-39
2022/11/02 05:40:41;;;;;;;18.47;10.63;;;11.50;51.50;;;;;;5034385;28;20650;-41
2022/11/02 05:43:08;;;;;;;20.70;13.27;;;11.50;51.60;;;;;;5034317;28;20254;-41
2022/11/02 05:45:34;;;;;;;18.58;13.48;;;11.50;51.40;;;;;;5033267;28;20452;-42
2022/11/02 05:48:01;;;;;;;20.38;12.18;;;11.50;51.30;;;;;;5034091;28;20554;-41
2022/11/02 05:50:28;;;;;;;23.13;13.30;;;11.50;51.40;;;;;;5034015;28;20642;-41
2022/11/02 05:52:54;;;;;;;22.00;12.32;;;11.50;51.50;;;;;;5033928;28;20177;-42
2022/11/02 05:55:20;;;;;;;23.02;11.77;;;11.50;51.50;;;;;;5033852;28;20186;-42
2022/11/02 05:57:53;;;;;;;22.92;11.68;;;11.50;51.50;;;;;;5033243;28;20189;-42
2022/11/02 06:00:20;;;;;;;24.40;12.35;;;11.50;51.70;;;;;;5033670;28;20170;-41
2022/11/02 06:02:47;;;;;;;23.45;12.65;;;11.40;51.60;;;;;;5033737;28;20204;-41
2022/11/02 06:05:13;;;;;;;29.90;12.25;;;11.40;51.60;;;;;;5033596;28;20255;-42
2022/11/02 06:07:38;;;;;;;22.50;12.60;;;11.40;51.50;;;;;;5032999;28;20198;-41
2022/11/02 06:10:05;;;;;;;23.77;14.90;;;11.50;51.60;;;;;;5015780;28;20416;-41
2022/11/02 06:12:31;;;;;;;26.33;12.75;;;11.50;51.60;;;;;;5033683;28;20174;-41
2022/11/02 06:14:56;;;;;;;26.47;13.47;;;11.40;51.50;;;;;;5033381;28;20250;-41
2022/11/02 06:17:22;;;;;;;18.63;11.83;;;11.40;51.60;;;;;;5032994;28;20170;-41
2022/11/02 06:19:48;;;;;;;21.17;11.53;;;11.30;51.70;;;;;;5033393;28;20173;-41
2022/11/02 06:22:14;;;;;;;23.63;13.07;;;11.40;51.90;;;;;;5033353;28;20249;-41
2022/11/02 06:24:39;;;;;;;26.50;13.07;;;11.40;51.80;;;;;;5033236;28;20177;-41
2022/11/02 06:27:05;;;;;;;19.33;11.47;;;11.50;51.80;;;;;;5032421;28;20190;-41
2022/11/02 06:29:31;;;;;;;20.70;11.57;;;11.60;51.70;;;;;;5033341;28;20428;-41
2022/11/02 06:31:57;;;;;;;20.60;12.60;;;11.80;51.60;;;;;;5033201;28;20169;-42
2022/11/02 06:34:22;;;;;;;22.20;15.20;;;12.10;51.70;;;;;;5033169;28;20205;-41
2022/11/02 06:36:48;;;;;;;20.17;12.57;;;12.50;51.50;;;;;;5032414;28;20182;-40
2022/11/02 06:39:14;;;;;;;16.87;10.87;;;12.90;51.10;;;;;;5033010;28;20166;-41
2022/11/02 06:41:39;;;;;;;20.97;11.73;;;13.30;50.50;;;;;;5033026;28;20577;-42
2022/11/02 06:44:05;;;;;;;19.87;10.20;;;13.70;49.80;;;;;;5032967;28;20221;-41
2022/11/02 06:46:31;;;;;;;23.17;13.97;;;14.00;48.80;;;;;;5032249;28;20205;-41
2022/11/02 06:48:57;;;;;;;18.00;10.90;;;14.40;48.50;;;;;;5015014;28;20201;-41
2022/11/02 06:51:23;;;;;;;14.00;8.60;;;14.70;47.80;;;;;;5032796;28;20190;-42
2022/11/02 06:53:49;;;;;;;17.27;10.27;;;15.00;47.40;;;;;;5032857;28;20252;-41
2022/11/02 06:56:15;;;;;;;15.97;9.73;;;15.10;46.80;;;;;;5032504;28;20412;-39
2022/11/02 06:58:40;;;;;;;20.73;11.57;;;14.90;46.20;;;;;;5033281;28;20193;-39
2022/11/02 07:01:07;;;;;;;16.40;11.40;;;14.70;46.00;;;;;;5033267;28;20253;-39
2022/11/02 07:03:34;;;;;;;18.30;10.60;;;14.50;46.50;;;;;;5033344;28;20197;-41
2022/11/02 07:06:01;;;;;;;17.48;11.65;;;14.20;46.60;;;;;;5032232;28;20209;-42
2022/11/02 07:08:27;;;;;;;19.23;11.45;;;14.00;47.10;;;;;;5032429;28;20206;-42
2022/11/02 07:10:53;;;;;;;15.32;10.60;;;13.70;47.40;;;;;;5032738;28;20173;-41
2022/11/02 07:13:19;;;;;;;17.50;10.10;;;13.60;47.80;;;;;;5032610;28;20190;-42
2022/11/02 07:15:45;;;;;;;17.30;9.50;;;13.50;48.10;;;;;;5032308;28;20198;-41
2022/11/02 07:18:12;;;;;;;17.10;10.00;;;13.30;48.40;;;;;;5032401;28;20175;-41
2022/11/02 07:20:37;;;;;;;14.35;9.63;;;13.20;48.60;;;;;;5032252;28;20413;-41
2022/11/02 07:23:04;;;;;;;16.20;8.17;;;13.20;48.80;;;;;;5032300;28;20201;-41
2022/11/02 07:25:31;;;;;;;22.25;10.68;;;13.10;48.90;;;;;;5032140;28;20429;-42
2022/11/02 07:28:00;;;;;;;17.15;10.55;;;13.10;49.00;;;;;;5031868;28;20661;-41
2022/11/02 07:30:30;;;;;;;13.18;8.38;;;13.10;49.10;;;;;;5014474;28;20257;-41
2022/11/02 07:32:57;;;;;;;18.52;9.50;;;13.20;49.30;;;;;;5032187;28;20178;-41
2022/11/02 07:35:23;;;;;;;23.35;12.02;;;13.30;49.30;;;;;;5031994;28;20186;-41
2022/11/02 07:38:00;;;;;;;16.23;9.10;;;13.50;49.30;;;;;;5031653;28;20173;-42
2022/11/02 07:40:27;;;;;;;13.02;8.90;;;13.60;49.20;;;;;;5032075;28;20169;-41
2022/11/02 07:42:52;;;;;;;14.45;8.82;;;14.00;49.20;;;;;;5032082;28;20677;-41
2022/11/02 07:45:20;;;;;;;13.87;8.73;;;14.30;49.20;;;;;;5031894;28;20220;-41
2022/11/02 07:47:47;;;;;;;17.38;10.98;;;14.40;48.30;;;;;;5031387;28;20460;-40
2022/11/02 07:50:14;;;;;;;17.05;9.75;;;14.60;48.00;;;;;;5032083;28;20177;-41
2022/11/02 07:52:48;;;;;;;11.10;7.95;;;14.60;47.60;;;;;;5032044;28;20174;-41
2022/11/02 07:55:16;;;;;;;15.15;7.55;;;14.60;47.70;;;;;;5031845;28;20189;-41
2022/11/02 07:57:42;;;;;;;14.63;8.73;;;14.60;47.60;;;;;;5031550;28;20200;-42
2022/11/02 08:00:10;;;;;;;12.68;8.43;;;14.60;47.80;;;;;;5032198;28;20190;-41
2022/11/02 08:02:36;;;;;;;13.15;8.52;;;14.60;48.00;;;;;;5035914;28;20252;-42
2022/11/02 08:05:02;;;;;;;12.50;8.17;;;14.60;48.00;;;;;;5035920;28;20680;-42
2022/11/02 08:07:28;;;;;;;14.63;8.80;;;14.80;48.10;;;;;;5035219;28;20502;-41
2022/11/02 08:09:53;;;;;;;15.37;8.70;;;15.60;47.80;;;;;;5035863;28;20401;-41
2022/11/02 08:12:19;;;;;;;13.27;7.73;;;16.30;47.40;;;;;;5018429;28;20177;-42
2022/11/02 08:14:45;;;;;;;16.43;8.50;;;16.70;46.90;;;;;;5035865;28;20250;-43
2022/11/02 08:17:10;;;;;;;22.70;9.73;;;16.90;46.60;;;;;;5035158;28;20653;-43
2022/11/02 08:19:36;;;;;;;12.13;7.70;;;17.10;46.70;;;;;;5035655;28;20170;-42
2022/11/02 08:22:02;;;;;;;10.77;7.30;;;17.30;46.60;;;;;;5035623;28;20185;-43
2022/11/02 08:24:28;;;;;;;18.13;7.40;;;17.50;46.10;;;;;;5035515;28;20166;-43
2022/11/02 08:26:54;;;;;;;11.97;6.90;;;17.60;45.40;;;;;;5034721;28;20427;-43
2022/11/02 08:29:19;;;;;;;9.87;6.30;;;17.80;44.90;;;;;;5035469;28;20173;-42
2022/11/02 08:31:47;;;;;;;11.90;6.57;;;18.00;44.90;;;;;;5035499;28;20605;-42
2022/11/02 08:34:12;;;;;;;9.00;6.10;;;18.40;43.80;;;;;;5035413;28;20529;-43
2022/11/02 08:36:38;;;;;;;17.13;6.67;;;18.60;44.10;;;;;;5034921;28;20189;-43
2022/11/02 08:39:04;;;;;;;11.10;6.70;;;18.90;43.00;;;;;;5035252;28;20170;-44
2022/11/02 08:41:30;;;;;;;13.57;6.90;;;19.30;42.90;;;;;;5035210;28;20178;-42
2022/11/02 08:43:56;;;;;;;14.10;8.20;;;19.80;42.20;;;;;;5035280;28;20177;-42
2022/11/02 08:46:22;;;;;;;11.60;4.63;;;20.30;42.00;;;;;;5034500;28;20243;-43
2022/11/02 08:48:48;;;;;;;7.80;5.17;;;20.80;40.40;;;;;;5035084;28;20649;-42
2022/11/02 08:51:13;;;;;;;12.50;6.00;;;21.30;40.00;;;;;;5035156;28;20400;-42
2022/11/02 08:53:39;;;;;;;10.37;5.70;;;21.80;39.10;;;;;;5035011;28;20487;-42
2022/11/02 08:56:05;;;;;;;8.80;4.73;;;21.90;39.20;;;;;;5034281;28;20284;-44
2022/11/02 08:58:31;;;;;;;11.18;3.75;;;22.00;39.00;;;;;;5034931;28;20409;-42
2022/11/02 09:00:57;;;;;;;6.67;2.50;;;22.00;36.00;;;;;;5034926;28;20177;-43
2022/11/02 09:03:27;;;;;;;3.57;1.80;;;21.90;36.30;;;;;;5034909;28;20166;-42
2022/11/02 09:05:57;;;;;;;7.22;3.10;;;21.60;35.40;;;;;;5034184;28;20222;-44
2022/11/02 09:08:24;;;;;;;10.00;2.70;;;21.40;35.90;;;;;;5035035;28;20217;-42
2022/11/02 09:10:51;;;;;;;5.70;2.30;;;21.10;35.70;;;;;;5034701;28;20252;-43
2022/11/02 09:13:20;;;;;;;6.75;2.30;;;20.80;35.90;;;;;;5015720;28;20192;-42
2022/11/02 09:15:49;;;;;;;9.45;2.75;;;20.40;36.30;;;;;;5034173;28;20200;-42
2022/11/02 09:18:15;;;;;;;7.72;2.40;;;20.20;37.70;;;;;;5034580;28;20173;-42
2022/11/02 09:20:41;;;;;;;6.47;2.50;;;20.20;37.40;;;;;;5034854;28;20443;-42
2022/11/02 09:23:06;;;;;;;7.17;2.60;;;20.30;37.70;;;;;;5034515;28;20224;-42
2022/11/02 09:25:32;;;;;;;11.17;2.70;;;20.10;37.30;;;;;;5033996;28;20511;-42
2022/11/02 09:27:58;;;;;;;5.17;3.00;;;19.90;38.20;;;;;;5034532;28;20202;-42
2022/11/02 09:30:25;;;;;;;7.32;2.13;;;19.80;38.00;;;;;;5034601;28;20450;-41
2022/11/02 09:32:56;;;;;;;7.25;2.85;;;19.80;38.10;;;;;;5034336;28;20170;-44
2022/11/02 09:35:23;;;;;;;4.43;2.30;;;19.70;38.60;;;;;;5034245;28;20178;-42
2022/11/02 09:37:49;;;;;;;6.43;2.25;;;19.50;38.80;;;;;;5033642;28;20178;-41
2022/11/02 09:40:23;;;;;;;7.50;1.70;;;19.50;37.70;;;;;;5034029;28;20170;-42
2022/11/02 09:43:02;;;;;;;6.75;1.95;;;19.40;37.70;;;;;;5034351;28;20403;-41
2022/11/02 09:45:31;;;;;;;6.53;1.75;;;19.30;38.80;;;;;;5034005;28;20245;-42
2022/11/02 09:48:11;;;;;;;6.35;2.55;;;19.30;38.60;;;;;;5034008;28;20215;-42
2022/11/02 09:51:02;;;;;;;3.13;1.90;;;19.40;39.00;;;;;;5033986;28;20166;-43
2022/11/02 09:53:49;;;;;;;3.78;2.05;;;19.60;38.00;;;;;;5034002;28;20193;-42
2022/11/02 09:56:20;;;;;;;4.20;2.50;;;19.70;37.20;;;;;;5033224;28;20685;-41
2022/11/02 09:58:57;;;;;;;5.65;1.80;;;19.60;37.00;;;;;;5016140;28;20182;-44
2022/11/02 10:01:30;;;;;;;4.90;2.72;;;19.50;37.40;;;;;;5034081;28;20249;-42
2022/11/02 10:04:02;;;;;;;8.15;1.85;;;19.40;37.70;;;;;;5033809;28;20163;-43
2022/11/02 10:06:29;;;;;;;4.57;1.52;;;19.10;37.50;;;;;;5033183;28;20223;-43
2022/11/02 10:09:15;;;;;;;9.40;1.77;;;18.90;37.70;;;;;;5033245;28;20604;-42
2022/11/02 10:12:01;;;;;;;5.47;1.42;;;18.70;38.40;;;;;;5033567;28;20151;-42
2022/11/02 10:14:34;;;;;;;6.57;2.85;;;18.70;39.00;;;;;;5033597;28;20162;-42
2022/11/02 10:17:16;;;;;;;5.00;1.75;;;18.70;39.00;;;;;;5032790;28;20182;-42
2022/11/02 10:19:53;;;;;;;2.92;1.45;;;18.80;39.10;;;;;;5032164;28;20178;-41
2022/11/02 10:22:21;;;;;;;4.70;2.05;;;19.10;38.90;;;;;;5033446;28;20635;-44
2022/11/02 10:24:48;;;;;;;10.35;2.55;;;19.40;38.10;;;;;;5033158;28;20256;-42
2022/11/02 10:27:28;;;;;;;7.05;2.35;;;19.70;37.90;;;;;;5032866;28;20178;-41
2022/11/02 10:30:14;;;;;;;6.05;1.50;;;20.10;37.00;;;;;;5033281;28;20161;-41
2022/11/02 10:32:41;;;;;;;5.28;2.08;;;20.30;35.90;;;;;;5033424;28;20177;-42
2022/11/02 10:35:40;;;;;;;14.93;2.17;;;20.40;35.80;;;;;;5033444;28;20221;-42
2022/11/02 10:38:41;;;;;;;3.80;1.80;;;20.50;35.60;;;;;;4983324;28;20244;-41
2022/11/02 10:41:31;;;;;;;5.13;2.05;;;20.60;34.70;;;;;;5033379;28;20201;-42
2022/11/02 10:44:35;;;;;;;5.40;1.70;;;20.60;35.30;;;;;;5033056;28;20170;-43
2022/11/02 10:47:22;;;;;;;3.20;1.60;;;20.60;35.40;;;;;;4932421;29;20212;-43
2022/11/02 10:50:22;;;;;;;3.10;1.63;;;20.70;35.60;;;;;;4932773;29;20264;-42
2022/11/02 10:52:48;;;;;;;4.07;1.83;;;20.90;34.90;;;;;;4932647;29;20187;-42
2022/11/02 10:55:24;;;;;;;12.53;2.67;;;20.80;34.10;;;;;;4932787;29;20193;-43
2022/11/02 10:57:53;;;;;;;6.85;2.20;;;20.80;35.30;;;;;;4932405;29;20436;-42
2022/11/02 11:00:24;;;;;;;8.65;2.50;;;21.00;35.30;;;;;;4933252;29;20189;-43
2022/11/02 11:03:11;;;;;;;3.23;1.50;;;21.20;33.90;;;;;;4933085;29;20688;-42
2022/11/02 11:05:49;;;;;;;4.30;1.37;;;21.20;33.80;;;;;;4932507;29;20996;-43
2022/11/02 11:08:43;;;;;;;3.60;1.67;;;21.10;34.40;;;;;;4932919;29;20484;-42
2022/11/02 11:11:31;;;;;;;7.33;1.73;;;21.00;33.60;;;;;;4933114;29;20174;-43
2022/11/02 11:13:59;;;;;;;10.63;2.30;;;21.00;34.10;;;;;;4924217;29;20428;-42
2022/11/02 11:16:34;;;;;;;10.82;1.98;;;21.00;33.50;;;;;;4932444;29;20523;-43
2022/11/02 11:19:00;;;;;;;6.45;2.85;;;21.00;33.80;;;;;;4932918;29;20181;-42
2022/11/02 11:21:40;;;;;;;7.20;1.60;;;21.00;33.30;;;;;;5000473;28;20387;-43
2022/11/02 11:24:29;;;;;;;3.30;2.10;;;21.10;34.40;;;;;;5032299;28;20413;-43
2022/11/02 11:27:11;;;;;;;4.83;2.00;;;21.20;33.20;;;;;;5031627;28;20982;-42
2022/11/02 11:29:40;;;;;;;3.17;2.00;;;21.30;33.60;;;;;;5032413;28;20381;-43
2022/11/02 11:32:17;;;;;;;4.30;1.60;;;21.50;33.20;;;;;;5032250;28;20225;-42
2022/11/02 11:34:52;;;;;;;7.60;1.97;;;21.70;32.70;;;;;;5031840;28;20193;-42
2022/11/02 11:37:18;;;;;;;6.80;2.00;;;21.60;31.40;;;;;;5031522;28;20407;-42
2022/11/02 11:39:48;;;;;;;6.27;2.20;;;21.50;30.90;;;;;;5032200;28;20761;-41
2022/11/02 11:42:19;;;;;;;3.93;1.57;;;21.40;31.10;;;;;;5032136;28;20236;-42
2022/11/02 11:45:06;;;;;;;8.77;2.30;;;21.30;31.50;;;;;;5032013;28;20452;-42
2022/11/02 11:47:37;;;;;;;2.83;1.40;;;21.20;31.30;;;;;;5031720;28;20436;-42
2022/11/02 11:50:14;;;;;;;3.70;2.20;;;21.10;32.00;;;;;;5014380;28;20541;-42
2022/11/02 11:52:40;;;;;;;5.75;1.83;;;21.20;31.50;;;;;;5032061;28;20211;-42
2022/11/02 11:55:23;;;;;;;7.37;2.53;;;21.30;32.30;;;;;;5031890;28;20190;-42
2022/11/02 11:58:30;;;;;;;4.72;1.92;;;21.50;31.40;;;;;;5031324;28;20405;-42
2022/11/02 12:01:11;;;;;;;3.22;1.52;;;21.50;31.40;;;;;;4932461;29;20181;-42
2022/11/02 12:03:54;;;;;;;6.50;1.83;;;21.50;30.60;;;;;;4932653;29;20177;-42
2022/11/02 12:06:38;;;;;;;4.68;1.85;;;21.50;31.60;;;;;;4931663;29;20965;-42
2022/11/02 12:09:40;;;;;;;3.27;1.47;;;21.70;31.40;;;;;;4932382;29;20203;-43
2022/11/02 12:12:05;;;;;;;7.13;1.90;;;21.80;29.80;;;;;;4916501;29;20421;-43
2022/11/02 12:14:43;;;;;;;5.30;1.67;;;21.60;29.50;;;;;;4932359;29;20475;-43
2022/11/02 12:17:40;;;;;;;10.43;2.00;;;21.20;30.00;;;;;;4931716;29;20244;-43
2022/11/02 12:20:22;;;;;;;5.83;2.40;;;21.00;30.70;;;;;;4905934;29;20770;-43
2022/11/02 12:22:51;;;;;;;5.20;2.13;;;20.80;30.90;;;;;;4932334;29;20505;-42
2022/11/02 12:25:31;;;;;;;2.05;1.58;;;20.60;31.20;;;;;;4932400;29;20271;-43
2022/11/02 12:28:14;;;;;;;7.43;2.25;;;20.40;31.20;;;;;;4931999;29;20236;-42
2022/11/02 12:31:13;;;;;;;5.15;1.60;;;20.20;31.20;;;;;;4941929;28;20181;-43
2022/11/02 12:33:59;;;;;;;8.00;2.33;;;20.10;32.20;;;;;;5031742;28;20159;-43
2022/11/02 12:36:34;;;;;;;3.35;1.65;;;20.10;31.70;;;;;;5031040;28;20654;-43
2022/11/02 12:39:13;;;;;;;3.45;1.98;;;20.50;32.50;;;;;;5031760;28;20166;-43
2022/11/02 12:42:03;;;;;;;2.30;1.30;;;21.00;31.50;;;;;;5031719;28;20257;-43
2022/11/02 12:44:41;;;;;;;3.83;2.03;;;21.80;30.80;;;;;;5031547;28;20220;-43
2022/11/02 12:47:36;;;;;;;6.23;2.30;;;22.70;30.50;;;;;;5032442;28;20460;-43
2022/11/02 12:50:07;;;;;;;6.43;2.07;;;23.80;28.70;;;;;;5035111;28;20397;-43
2022/11/02 12:52:42;;;;;;;4.87;1.93;;;24.80;27.60;;;;;;5035103;28;20411;-43
2022/11/02 12:55:16;;;;;;;4.43;2.50;;;24.70;26.40;;;;;;5035097;28;20416;-43
2022/11/02 12:57:43;;;;;;;5.63;2.20;;;24.60;25.80;;;;;;5034662;28;20531;-43
2022/11/02 13:00:20;;;;;;;3.73;1.90;;;23.90;26.10;;;;;;5034966;28;20843;-43
2022/11/02 13:02:52;;;;;;;6.50;1.90;;;23.10;26.90;;;;;;5035472;28;20408;-43
2022/11/02 13:05:22;;;;;;;5.03;1.90;;;22.50;27.50;;;;;;5034691;28;20463;-43